sensor_id;sensor_type;location;lat;lon;timestamp;temperature;humidity
7000;DHT22;3540;53.242;10.408;2024-01-16T00:02:01;-0.30;99.90
7000;DHT22;3540;53.242;10.408;2024-01-16T00:04:26;-0.30;99.90
7000;DHT22;3540;53.242;10.408;2024-01-16T00:06:55;-0.30;99.90
7000;DHT22;3540;53.242;10.408;2024-01-16T00:09:20;-0.40;99.90
7000;DHT22;3540;53.242;10.408;2024-01-16T00:11:46;-0.40;99.90
7000;DHT22;3540;53.242;10.408;2024-01-16T00:14:12;-0.40;99.90
7000;DHT22;3540;53.242;10.408;2024-01-16T00:16:44;-0.40;99.90
7000;DHT22;3540;53.242;10.408;2024-01-16T00:19:10;-0.40;99.90
7000;DHT22;3540;53.242;10.408;2024-01-16T00:21:55;-0.40;99.90
7000;DHT22;3540;53.242;10.408;2024-01-16T00:24:21;-0.30;99.90
7000;DHT22;3540;53.242;10.408;2024-01-16T00:26:47;-0.30;99.90
7000;DHT22;3540;53.242;10.408;2024-01-16T00:29:12;-0.30;99.90
7000;DHT22;3540;53.242;10.408;2024-01-16T00:31:39;-0.40;99.90
7000;DHT22;3540;53.242;10.408;2024-01-16T00:34:04;-0.40;99.90
7000;DHT22;3540;53.242;10.408;2024-01-16T00:36:30;-0.40;99.90
7000;DHT22;3540;53.242;10.408;2024-01-16T00:38:56;-0.40;99.90
7000;DHT22;3540;53.242;10.408;2024-01-16T00:41:22;-0.40;99.90
7000;DHT22;3540;53.242;10.408;2024-01-16T00:43:48;-0.40;99.90
7000;DHT22;3540;53.242;10.408;2024-01-16T00:46:13;-0.40;99.90
7000;DHT22;3540;53.242;10.408;2024-01-16T00:48:39;-0.40;99.90
7000;DHT22;3540;53.242;10.408;2024-01-16T00:51:05;-0.50;99.90
7000;DHT22;3540;53.242;10.408;2024-01-16T00:53:30;-0.50;99.90
7000;DHT22;3540;53.242;10.408;2024-01-16T00:58:41;-0.40;99.90
7000;DHT22;3540;53.242;10.408;2024-01-16T01:01:06;-0.40;99.90
7000;DHT22;3540;53.242;10.408;2024-01-16T01:03:32;-0.30;99.90
7000;DHT22;3540;53.242;10.408;2024-01-16T01:05:58;-0.30;99.90
7000;DHT22;3540;53.242;10.408;2024-01-16T01:08:25;-0.30;99.90
7000;DHT22;3540;53.242;10.408;2024-01-16T01:10:50;-0.30;99.90
7000;DHT22;3540;53.242;10.408;2024-01-16T01:13:16;-0.30;99.90
7000;DHT22;3540;53.242;10.408;2024-01-16T01:15:42;-0.30;99.90
7000;DHT22;3540;53.242;10.408;2024-01-16T01:18:07;-0.30;99.90
7000;DHT22;3540;53.242;10.408;2024-01-16T01:20:33;-0.30;99.90
7000;DHT22;3540;53.242;10.408;2024-01-16T01:22:59;-0.20;99.90
7000;DHT22;3540;53.242;10.408;2024-01-16T01:25:25;-0.20;99.90
7000;DHT22;3540;53.242;10.408;2024-01-16T01:27:51;-0.20;99.90
7000;DHT22;3540;53.242;10.408;2024-01-16T01:30:17;-0.20;99.90
7000;DHT22;3540;53.242;10.408;2024-01-16T01:32:43;-0.20;99.90
7000;DHT22;3540;53.242;10.408;2024-01-16T01:35:09;-0.10;99.90
7000;DHT22;3540;53.242;10.408;2024-01-16T01:37:37;-0.20;99.90
7000;DHT22;3540;53.242;10.408;2024-01-16T01:40:03;-0.20;99.90
7000;DHT22;3540;53.242;10.408;2024-01-16T01:42:28;-0.20;99.90
7000;DHT22;3540;53.242;10.408;2024-01-16T01:44:55;-0.20;99.90
7000;DHT22;3540;53.242;10.408;2024-01-16T01:47:20;-0.20;99.90
7000;DHT22;3540;53.242;10.408;2024-01-16T01:49:46;-0.20;99.90
7000;DHT22;3540;53.242;10.408;2024-01-16T01:52:12;-0.20;99.90
7000;DHT22;3540;53.242;10.408;2024-01-16T01:54:38;-0.20;99.90
7000;DHT22;3540;53.242;10.408;2024-01-16T01:57:05;-0.20;99.90
7000;DHT22;3540;53.242;10.408;2024-01-16T01:59:32;-0.20;99.90
7000;DHT22;3540;53.242;10.408;2024-01-16T02:01:58;-0.20;99.90
7000;DHT22;3540;53.242;10.408;2024-01-16T02:04:25;-0.20;99.90
7000;DHT22;3540;53.242;10.408;2024-01-16T02:06:51;-0.20;99.90
7000;DHT22;3540;53.242;10.408;2024-01-16T02:09:17;-0.20;99.90
7000;DHT22;3540;53.242;10.408;2024-01-16T02:11:43;-0.30;99.90
7000;DHT22;3540;53.242;10.408;2024-01-16T02:14:09;-0.30;99.90
7000;DHT22;3540;53.242;10.408;2024-01-16T02:16:37;-0.30;99.90
7000;DHT22;3540;53.242;10.408;2024-01-16T02:19:04;-0.40;99.90
7000;DHT22;3540;53.242;10.408;2024-01-16T02:21:37;-0.40;99.90
7000;DHT22;3540;53.242;10.408;2024-01-16T02:24:05;-0.40;99.90
7000;DHT22;3540;53.242;10.408;2024-01-16T02:26:32;-0.40;99.90
7000;DHT22;3540;53.242;10.408;2024-01-16T02:28:57;-0.30;99.90
7000;DHT22;3540;53.242;10.408;2024-01-16T02:31:23;-0.40;99.90
7000;DHT22;3540;53.242;10.408;2024-01-16T02:33:49;-0.40;99.90
7000;DHT22;3540;53.242;10.408;2024-01-16T02:36:15;-0.50;99.90
7000;DHT22;3540;53.242;10.408;2024-01-16T02:38:41;-0.50;99.90
7000;DHT22;3540;53.242;10.408;2024-01-16T02:41:07;-0.60;99.90
7000;DHT22;3540;53.242;10.408;2024-01-16T02:43:33;-0.60;99.90
7000;DHT22;3540;53.242;10.408;2024-01-16T02:45:58;-0.60;99.90
7000;DHT22;3540;53.242;10.408;2024-01-16T02:48:24;-0.60;99.90
7000;DHT22;3540;53.242;10.408;2024-01-16T02:50:50;-0.60;99.90
7000;DHT22;3540;53.242;10.408;2024-01-16T02:53:15;-0.60;99.90
7000;DHT22;3540;53.242;10.408;2024-01-16T02:55:41;-0.70;99.90
7000;DHT22;3540;53.242;10.408;2024-01-16T02:58:06;-0.70;99.90
7000;DHT22;3540;53.242;10.408;2024-01-16T03:00:32;-0.70;99.90
7000;DHT22;3540;53.242;10.408;2024-01-16T03:02:58;-0.70;99.90
7000;DHT22;3540;53.242;10.408;2024-01-16T03:05:23;-0.70;99.90
7000;DHT22;3540;53.242;10.408;2024-01-16T03:07:49;-0.80;99.90
7000;DHT22;3540;53.242;10.408;2024-01-16T03:10:15;-0.80;99.90
7000;DHT22;3540;53.242;10.408;2024-01-16T03:12:40;-0.80;99.90
7000;DHT22;3540;53.242;10.408;2024-01-16T03:15:06;-0.90;99.90
7000;DHT22;3540;53.242;10.408;2024-01-16T03:17:32;-0.80;99.90
7000;DHT22;3540;53.242;10.408;2024-01-16T03:19:57;-0.80;99.90
7000;DHT22;3540;53.242;10.408;2024-01-16T03:22:23;-0.80;99.90
7000;DHT22;3540;53.242;10.408;2024-01-16T03:24:49;-0.80;99.90
7000;DHT22;3540;53.242;10.408;2024-01-16T03:27:15;-0.80;99.90
7000;DHT22;3540;53.242;10.408;2024-01-16T03:29:41;-0.70;99.90
7000;DHT22;3540;53.242;10.408;2024-01-16T03:32:06;-0.70;99.90
7000;DHT22;3540;53.242;10.408;2024-01-16T03:34:32;-0.70;99.90
7000;DHT22;3540;53.242;10.408;2024-01-16T03:36:57;-0.70;99.90
7000;DHT22;3540;53.242;10.408;2024-01-16T03:39:23;-0.70;99.90
7000;DHT22;3540;53.242;10.408;2024-01-16T03:41:49;-0.70;99.90
7000;DHT22;3540;53.242;10.408;2024-01-16T03:44:14;-0.70;99.90
7000;DHT22;3540;53.242;10.408;2024-01-16T03:46:40;-0.70;99.90
7000;DHT22;3540;53.242;10.408;2024-01-16T03:49:05;-0.80;99.90
7000;DHT22;3540;53.242;10.408;2024-01-16T03:51:31;-0.90;99.90
7000;DHT22;3540;53.242;10.408;2024-01-16T03:53:57;-0.90;99.90
7000;DHT22;3540;53.242;10.408;2024-01-16T03:56:23;-1.00;99.90
7000;DHT22;3540;53.242;10.408;2024-01-16T03:58:49;-1.10;99.90
7000;DHT22;3540;53.242;10.408;2024-01-16T04:01:14;-1.10;99.90
7000;DHT22;3540;53.242;10.408;2024-01-16T04:03:40;-1.10;99.90
7000;DHT22;3540;53.242;10.408;2024-01-16T04:06:16;-1.10;99.90
7000;DHT22;3540;53.242;10.408;2024-01-16T04:08:42;-1.00;99.90
7000;DHT22;3540;53.242;10.408;2024-01-16T04:11:12;-0.90;99.90
7000;DHT22;3540;53.242;10.408;2024-01-16T04:13:39;-0.90;99.90
7000;DHT22;3540;53.242;10.408;2024-01-16T04:16:05;-0.90;99.90
7000;DHT22;3540;53.242;10.408;2024-01-16T04:18:36;-0.80;99.90
7000;DHT22;3540;53.242;10.408;2024-01-16T04:21:03;-0.90;99.90
7000;DHT22;3540;53.242;10.408;2024-01-16T04:23:29;-0.80;99.90
7000;DHT22;3540;53.242;10.408;2024-01-16T04:25:54;-0.80;99.90
7000;DHT22;3540;53.242;10.408;2024-01-16T04:28:20;-0.70;99.90
7000;DHT22;3540;53.242;10.408;2024-01-16T04:30:45;-0.70;99.90
7000;DHT22;3540;53.242;10.408;2024-01-16T04:33:11;-0.70;99.90
7000;DHT22;3540;53.242;10.408;2024-01-16T04:35:37;-0.70;99.90
7000;DHT22;3540;53.242;10.408;2024-01-16T04:38:02;-0.70;99.90
7000;DHT22;3540;53.242;10.408;2024-01-16T04:40:28;-0.70;99.90
7000;DHT22;3540;53.242;10.408;2024-01-16T04:42:54;-0.60;99.90
7000;DHT22;3540;53.242;10.408;2024-01-16T04:45:19;-0.60;99.90
7000;DHT22;3540;53.242;10.408;2024-01-16T04:47:45;-0.60;99.90
7000;DHT22;3540;53.242;10.408;2024-01-16T04:50:11;-0.50;99.90
7000;DHT22;3540;53.242;10.408;2024-01-16T04:52:37;-0.40;99.90
7000;DHT22;3540;53.242;10.408;2024-01-16T04:55:03;-0.40;99.90
7000;DHT22;3540;53.242;10.408;2024-01-16T04:57:29;-0.40;99.90
7000;DHT22;3540;53.242;10.408;2024-01-16T04:59:54;-0.40;99.90
7000;DHT22;3540;53.242;10.408;2024-01-16T05:02:20;-0.40;99.90
7000;DHT22;3540;53.242;10.408;2024-01-16T05:04:45;-0.40;99.90
7000;DHT22;3540;53.242;10.408;2024-01-16T05:07:15;-0.30;99.90
7000;DHT22;3540;53.242;10.408;2024-01-16T05:09:40;-0.30;99.90
7000;DHT22;3540;53.242;10.408;2024-01-16T05:12:06;-0.20;99.90
7000;DHT22;3540;53.242;10.408;2024-01-16T05:14:32;-0.30;99.90
7000;DHT22;3540;53.242;10.408;2024-01-16T05:16:57;-0.30;99.90
7000;DHT22;3540;53.242;10.408;2024-01-16T05:19:23;-0.30;99.90
7000;DHT22;3540;53.242;10.408;2024-01-16T05:21:48;-0.30;99.90
7000;DHT22;3540;53.242;10.408;2024-01-16T05:24:14;-0.30;99.90
7000;DHT22;3540;53.242;10.408;2024-01-16T05:26:40;-0.30;99.90
7000;DHT22;3540;53.242;10.408;2024-01-16T05:29:05;-0.30;99.90
7000;DHT22;3540;53.242;10.408;2024-01-16T05:31:32;-0.30;99.90
7000;DHT22;3540;53.242;10.408;2024-01-16T05:33:57;-0.20;99.90
7000;DHT22;3540;53.242;10.408;2024-01-16T05:36:23;-0.20;99.90
7000;DHT22;3540;53.242;10.408;2024-01-16T05:38:50;-0.20;99.90
7000;DHT22;3540;53.242;10.408;2024-01-16T05:41:15;-0.30;99.90
7000;DHT22;3540;53.242;10.408;2024-01-16T05:43:41;-0.30;99.90
7000;DHT22;3540;53.242;10.408;2024-01-16T05:46:07;-0.20;99.90
7000;DHT22;3540;53.242;10.408;2024-01-16T05:48:32;-0.20;99.90
7000;DHT22;3540;53.242;10.408;2024-01-16T05:50:58;-0.20;99.90
7000;DHT22;3540;53.242;10.408;2024-01-16T05:53:23;-0.20;99.90
7000;DHT22;3540;53.242;10.408;2024-01-16T05:55:49;-0.20;99.90
7000;DHT22;3540;53.242;10.408;2024-01-16T05:58:15;-0.20;99.90
7000;DHT22;3540;53.242;10.408;2024-01-16T06:00:40;-0.20;99.90
7000;DHT22;3540;53.242;10.408;2024-01-16T06:03:06;-0.20;99.90
7000;DHT22;3540;53.242;10.408;2024-01-16T06:05:31;-0.20;99.90
7000;DHT22;3540;53.242;10.408;2024-01-16T06:07:57;-0.10;99.90
7000;DHT22;3540;53.242;10.408;2024-01-16T06:10:23;-0.20;99.90
7000;DHT22;3540;53.242;10.408;2024-01-16T06:12:48;-0.20;99.90
7000;DHT22;3540;53.242;10.408;2024-01-16T06:15:14;-0.30;99.90
7000;DHT22;3540;53.242;10.408;2024-01-16T06:17:40;-0.30;99.90
7000;DHT22;3540;53.242;10.408;2024-01-16T06:20:06;-0.30;99.90
7000;DHT22;3540;53.242;10.408;2024-01-16T06:22:32;-0.30;99.90
7000;DHT22;3540;53.242;10.408;2024-01-16T06:24:57;-0.30;99.90
7000;DHT22;3540;53.242;10.408;2024-01-16T06:27:23;-0.30;99.90
7000;DHT22;3540;53.242;10.408;2024-01-16T06:29:49;-0.20;99.90
7000;DHT22;3540;53.242;10.408;2024-01-16T06:32:16;-0.20;99.90
7000;DHT22;3540;53.242;10.408;2024-01-16T06:34:42;-0.20;99.90
7000;DHT22;3540;53.242;10.408;2024-01-16T06:37:08;-0.20;99.90
7000;DHT22;3540;53.242;10.408;2024-01-16T06:39:33;-0.20;99.90
7000;DHT22;3540;53.242;10.408;2024-01-16T06:42:00;-0.30;99.90
7000;DHT22;3540;53.242;10.408;2024-01-16T06:44:25;-0.30;99.90
7000;DHT22;3540;53.242;10.408;2024-01-16T06:46:51;-0.30;99.90
7000;DHT22;3540;53.242;10.408;2024-01-16T06:49:17;-0.20;99.90
7000;DHT22;3540;53.242;10.408;2024-01-16T06:51:42;-0.20;99.90
7000;DHT22;3540;53.242;10.408;2024-01-16T06:54:08;-0.20;99.90
7000;DHT22;3540;53.242;10.408;2024-01-16T06:56:34;-0.20;99.90
7000;DHT22;3540;53.242;10.408;2024-01-16T06:58:59;-0.20;99.90
7000;DHT22;3540;53.242;10.408;2024-01-16T07:01:26;-0.20;99.90
7000;DHT22;3540;53.242;10.408;2024-01-16T07:03:51;-0.20;99.90
7000;DHT22;3540;53.242;10.408;2024-01-16T07:06:18;-0.20;99.90
7000;DHT22;3540;53.242;10.408;2024-01-16T07:08:43;-0.20;99.90
7000;DHT22;3540;53.242;10.408;2024-01-16T07:11:09;-0.10;99.90
7000;DHT22;3540;53.242;10.408;2024-01-16T07:13:38;-0.20;99.90
7000;DHT22;3540;53.242;10.408;2024-01-16T07:16:04;-0.20;99.90
7000;DHT22;3540;53.242;10.408;2024-01-16T07:18:30;-0.10;99.90
7000;DHT22;3540;53.242;10.408;2024-01-16T07:20:55;-0.20;99.90
7000;DHT22;3540;53.242;10.408;2024-01-16T07:23:21;-0.20;99.90
7000;DHT22;3540;53.242;10.408;2024-01-16T07:25:47;-0.20;99.90
7000;DHT22;3540;53.242;10.408;2024-01-16T07:28:12;-0.20;99.90
7000;DHT22;3540;53.242;10.408;2024-01-16T07:30:40;-0.20;99.90
7000;DHT22;3540;53.242;10.408;2024-01-16T07:33:05;-0.20;99.90
7000;DHT22;3540;53.242;10.408;2024-01-16T07:35:31;-0.20;99.90
7000;DHT22;3540;53.242;10.408;2024-01-16T07:37:56;-0.20;99.90
7000;DHT22;3540;53.242;10.408;2024-01-16T07:40:22;-0.20;99.90
7000;DHT22;3540;53.242;10.408;2024-01-16T07:42:49;-0.20;99.90
7000;DHT22;3540;53.242;10.408;2024-01-16T07:45:14;-0.20;99.90
7000;DHT22;3540;53.242;10.408;2024-01-16T07:47:40;-0.20;99.90
7000;DHT22;3540;53.242;10.408;2024-01-16T07:50:07;-0.20;99.90
7000;DHT22;3540;53.242;10.408;2024-01-16T07:52:32;-0.20;99.90
7000;DHT22;3540;53.242;10.408;2024-01-16T07:54:58;-0.20;99.90
7000;DHT22;3540;53.242;10.408;2024-01-16T07:57:24;-0.20;99.90
7000;DHT22;3540;53.242;10.408;2024-01-16T07:59:49;-0.10;99.90
7000;DHT22;3540;53.242;10.408;2024-01-16T08:02:15;-0.10;99.90
7000;DHT22;3540;53.242;10.408;2024-01-16T08:04:40;-0.10;99.90
7000;DHT22;3540;53.242;10.408;2024-01-16T08:07:06;-0.10;99.90
7000;DHT22;3540;53.242;10.408;2024-01-16T08:09:32;0.00;99.90
7000;DHT22;3540;53.242;10.408;2024-01-16T08:11:58;0.00;99.90
7000;DHT22;3540;53.242;10.408;2024-01-16T08:14:23;0.00;99.90
7000;DHT22;3540;53.242;10.408;2024-01-16T08:16:49;0.00;99.90
7000;DHT22;3540;53.242;10.408;2024-01-16T08:19:15;0.00;99.90
7000;DHT22;3540;53.242;10.408;2024-01-16T08:21:40;-0.10;99.90
7000;DHT22;3540;53.242;10.408;2024-01-16T08:24:06;0.00;99.90
7000;DHT22;3540;53.242;10.408;2024-01-16T08:26:31;0.00;99.90
7000;DHT22;3540;53.242;10.408;2024-01-16T08:28:58;0.00;99.90
7000;DHT22;3540;53.242;10.408;2024-01-16T08:31:23;0.10;99.90
7000;DHT22;3540;53.242;10.408;2024-01-16T08:33:49;0.10;99.90
7000;DHT22;3540;53.242;10.408;2024-01-16T08:36:15;0.10;99.90
7000;DHT22;3540;53.242;10.408;2024-01-16T08:38:40;0.10;99.90
7000;DHT22;3540;53.242;10.408;2024-01-16T08:41:06;0.10;99.90
7000;DHT22;3540;53.242;10.408;2024-01-16T08:43:35;0.20;99.90
7000;DHT22;3540;53.242;10.408;2024-01-16T08:46:00;0.20;99.90
7000;DHT22;3540;53.242;10.408;2024-01-16T08:48:26;0.30;99.90
7000;DHT22;3540;53.242;10.408;2024-01-16T08:50:52;0.30;99.90
7000;DHT22;3540;53.242;10.408;2024-01-16T08:53:19;0.20;99.90
7000;DHT22;3540;53.242;10.408;2024-01-16T08:55:45;0.30;99.90
7000;DHT22;3540;53.242;10.408;2024-01-16T08:58:11;0.30;99.90
7000;DHT22;3540;53.242;10.408;2024-01-16T09:00:36;0.30;99.90
7000;DHT22;3540;53.242;10.408;2024-01-16T09:03:04;0.40;99.90
7000;DHT22;3540;53.242;10.408;2024-01-16T09:05:29;0.40;99.90
7000;DHT22;3540;53.242;10.408;2024-01-16T09:07:55;0.40;99.90
7000;DHT22;3540;53.242;10.408;2024-01-16T09:10:20;0.40;99.90
7000;DHT22;3540;53.242;10.408;2024-01-16T09:12:47;0.60;99.90
7000;DHT22;3540;53.242;10.408;2024-01-16T09:15:14;0.60;99.90
7000;DHT22;3540;53.242;10.408;2024-01-16T09:17:39;0.50;99.90
7000;DHT22;3540;53.242;10.408;2024-01-16T09:20:06;0.60;99.90
7000;DHT22;3540;53.242;10.408;2024-01-16T09:22:32;0.60;99.90
7000;DHT22;3540;53.242;10.408;2024-01-16T09:24:58;0.60;99.90
7000;DHT22;3540;53.242;10.408;2024-01-16T09:27:23;0.70;99.90
7000;DHT22;3540;53.242;10.408;2024-01-16T09:29:49;0.70;99.90
7000;DHT22;3540;53.242;10.408;2024-01-16T09:32:15;0.70;99.90
7000;DHT22;3540;53.242;10.408;2024-01-16T09:34:40;0.70;99.90
7000;DHT22;3540;53.242;10.408;2024-01-16T09:37:06;0.70;99.90
7000;DHT22;3540;53.242;10.408;2024-01-16T09:39:32;0.60;99.90
7000;DHT22;3540;53.242;10.408;2024-01-16T09:42:00;0.60;99.90
7000;DHT22;3540;53.242;10.408;2024-01-16T09:44:28;0.60;99.90
7000;DHT22;3540;53.242;10.408;2024-01-16T09:46:55;0.60;99.90
7000;DHT22;3540;53.242;10.408;2024-01-16T09:49:21;0.60;99.90
7000;DHT22;3540;53.242;10.408;2024-01-16T09:51:49;0.60;99.90
7000;DHT22;3540;53.242;10.408;2024-01-16T09:54:15;0.70;99.90
7000;DHT22;3540;53.242;10.408;2024-01-16T09:56:44;0.80;99.90
7000;DHT22;3540;53.242;10.408;2024-01-16T09:59:16;0.80;99.90
7000;DHT22;3540;53.242;10.408;2024-01-16T10:01:42;0.80;99.90
7000;DHT22;3540;53.242;10.408;2024-01-16T10:04:09;0.90;99.90
7000;DHT22;3540;53.242;10.408;2024-01-16T10:06:34;0.90;99.90
7000;DHT22;3540;53.242;10.408;2024-01-16T10:09:03;0.90;99.90
7000;DHT22;3540;53.242;10.408;2024-01-16T10:11:30;1.00;99.90
7000;DHT22;3540;53.242;10.408;2024-01-16T10:13:58;0.90;99.90
7000;DHT22;3540;53.242;10.408;2024-01-16T10:16:56;1.00;99.90
7000;DHT22;3540;53.242;10.408;2024-01-16T10:19:27;1.00;99.90
7000;DHT22;3540;53.242;10.408;2024-01-16T10:22:04;1.10;99.90
7000;DHT22;3540;53.242;10.408;2024-01-16T10:24:30;1.10;99.90
7000;DHT22;3540;53.242;10.408;2024-01-16T10:26:59;1.10;99.90
7000;DHT22;3540;53.242;10.408;2024-01-16T10:29:26;1.20;99.90
7000;DHT22;3540;53.242;10.408;2024-01-16T10:31:52;1.30;99.90
7000;DHT22;3540;53.242;10.408;2024-01-16T10:34:21;1.40;99.90
7000;DHT22;3540;53.242;10.408;2024-01-16T10:36:52;1.30;99.90
7000;DHT22;3540;53.242;10.408;2024-01-16T10:39:23;1.30;99.90
7000;DHT22;3540;53.242;10.408;2024-01-16T10:41:57;1.40;99.90
7000;DHT22;3540;53.242;10.408;2024-01-16T10:44:24;1.30;99.90
7000;DHT22;3540;53.242;10.408;2024-01-16T10:46:50;1.20;99.90
7000;DHT22;3540;53.242;10.408;2024-01-16T10:49:15;1.20;99.90
7000;DHT22;3540;53.242;10.408;2024-01-16T10:51:44;1.20;99.90
7000;DHT22;3540;53.242;10.408;2024-01-16T10:54:13;1.20;99.90
7000;DHT22;3540;53.242;10.408;2024-01-16T10:56:44;1.20;99.90
7000;DHT22;3540;53.242;10.408;2024-01-16T10:59:21;1.20;99.90
7000;DHT22;3540;53.242;10.408;2024-01-16T11:01:51;1.30;99.90
7000;DHT22;3540;53.242;10.408;2024-01-16T11:04:20;1.40;99.90
7000;DHT22;3540;53.242;10.408;2024-01-16T11:06:47;1.40;99.90
7000;DHT22;3540;53.242;10.408;2024-01-16T11:09:14;1.40;99.90
7000;DHT22;3540;53.242;10.408;2024-01-16T11:11:46;1.30;99.90
7000;DHT22;3540;53.242;10.408;2024-01-16T11:14:13;1.40;99.90
7000;DHT22;3540;53.242;10.408;2024-01-16T11:16:41;1.50;99.90
7000;DHT22;3540;53.242;10.408;2024-01-16T11:19:08;1.50;99.90
7000;DHT22;3540;53.242;10.408;2024-01-16T11:21:36;1.50;99.90
7000;DHT22;3540;53.242;10.408;2024-01-16T11:24:02;1.50;99.90
7000;DHT22;3540;53.242;10.408;2024-01-16T11:26:29;1.50;99.90
7000;DHT22;3540;53.242;10.408;2024-01-16T11:29:01;1.50;99.90
7000;DHT22;3540;53.242;10.408;2024-01-16T11:31:44;1.50;99.90
7000;DHT22;3540;53.242;10.408;2024-01-16T11:34:10;1.50;99.90
7000;DHT22;3540;53.242;10.408;2024-01-16T11:36:52;1.50;99.90
7000;DHT22;3540;53.242;10.408;2024-01-16T11:39:23;1.40;99.90
7000;DHT22;3540;53.242;10.408;2024-01-16T11:41:56;1.40;99.90
7000;DHT22;3540;53.242;10.408;2024-01-16T11:44:42;1.40;99.90
7000;DHT22;3540;53.242;10.408;2024-01-16T11:47:08;1.30;99.90
7000;DHT22;3540;53.242;10.408;2024-01-16T11:49:37;1.40;99.90
7000;DHT22;3540;53.242;10.408;2024-01-16T11:52:03;1.50;99.90
7000;DHT22;3540;53.242;10.408;2024-01-16T11:54:29;1.50;99.90
7000;DHT22;3540;53.242;10.408;2024-01-16T11:59:57;1.40;99.90
7000;DHT22;3540;53.242;10.408;2024-01-16T12:02:38;1.50;99.90
7000;DHT22;3540;53.242;10.408;2024-01-16T12:05:06;1.50;99.90
7000;DHT22;3540;53.242;10.408;2024-01-16T12:07:51;1.40;99.90
7000;DHT22;3540;53.242;10.408;2024-01-16T12:10:18;1.30;99.90
7000;DHT22;3540;53.242;10.408;2024-01-16T12:12:45;1.30;99.90
7000;DHT22;3540;53.242;10.408;2024-01-16T12:15:18;1.30;99.90
7000;DHT22;3540;53.242;10.408;2024-01-16T12:18:00;1.30;99.90
7000;DHT22;3540;53.242;10.408;2024-01-16T12:20:29;1.30;99.90
7000;DHT22;3540;53.242;10.408;2024-01-16T12:22:55;1.30;99.90
7000;DHT22;3540;53.242;10.408;2024-01-16T12:25:21;1.30;99.90
7000;DHT22;3540;53.242;10.408;2024-01-16T12:30:30;1.30;99.90
7000;DHT22;3540;53.242;10.408;2024-01-16T12:33:11;1.30;99.90
7000;DHT22;3540;53.242;10.408;2024-01-16T12:35:42;1.40;99.90
7000;DHT22;3540;53.242;10.408;2024-01-16T12:38:09;1.50;99.90
7000;DHT22;3540;53.242;10.408;2024-01-16T12:40:41;1.60;99.90
7000;DHT22;3540;53.242;10.408;2024-01-16T12:43:08;1.60;99.90
7000;DHT22;3540;53.242;10.408;2024-01-16T12:45:35;1.50;99.90
7000;DHT22;3540;53.242;10.408;2024-01-16T12:48:01;1.50;99.90
7000;DHT22;3540;53.242;10.408;2024-01-16T12:50:29;1.50;99.90
7000;DHT22;3540;53.242;10.408;2024-01-16T12:53:08;1.40;99.90
7000;DHT22;3540;53.242;10.408;2024-01-16T12:55:36;1.50;99.90
7000;DHT22;3540;53.242;10.408;2024-01-16T12:58:17;1.50;99.90
7000;DHT22;3540;53.242;10.408;2024-01-16T13:00:51;1.50;99.90
7000;DHT22;3540;53.242;10.408;2024-01-16T13:03:18;1.40;99.90
7000;DHT22;3540;53.242;10.408;2024-01-16T13:05:45;1.40;99.90
7000;DHT22;3540;53.242;10.408;2024-01-16T13:08:18;1.30;99.90
7000;DHT22;3540;53.242;10.408;2024-01-16T13:10:45;1.30;99.90
7000;DHT22;3540;53.242;10.408;2024-01-16T13:13:16;1.30;99.90
7000;DHT22;3540;53.242;10.408;2024-01-16T13:15:45;1.20;99.90
7000;DHT22;3540;53.242;10.408;2024-01-16T13:18:21;1.30;99.90
7000;DHT22;3540;53.242;10.408;2024-01-16T13:20:50;1.30;99.90
7000;DHT22;3540;53.242;10.408;2024-01-16T13:23:16;1.30;99.90
7000;DHT22;3540;53.242;10.408;2024-01-16T13:25:46;1.30;99.90
7000;DHT22;3540;53.242;10.408;2024-01-16T13:28:13;1.30;99.90
7000;DHT22;3540;53.242;10.408;2024-01-16T13:30:39;1.40;99.90
7000;DHT22;3540;53.242;10.408;2024-01-16T13:33:05;1.30;99.90
7000;DHT22;3540;53.242;10.408;2024-01-16T13:35:31;1.30;99.90
7000;DHT22;3540;53.242;10.408;2024-01-16T13:37:57;1.30;99.90
7000;DHT22;3540;53.242;10.408;2024-01-16T13:40:23;1.30;99.90
7000;DHT22;3540;53.242;10.408;2024-01-16T13:42:49;1.30;99.90
7000;DHT22;3540;53.242;10.408;2024-01-16T13:45:14;1.30;99.90
7000;DHT22;3540;53.242;10.408;2024-01-16T13:47:40;1.30;99.90
7000;DHT22;3540;53.242;10.408;2024-01-16T13:50:09;1.30;99.90
7000;DHT22;3540;53.242;10.408;2024-01-16T13:52:35;1.30;99.90
7000;DHT22;3540;53.242;10.408;2024-01-16T13:55:02;1.30;99.90
7000;DHT22;3540;53.242;10.408;2024-01-16T13:57:31;1.30;99.90
7000;DHT22;3540;53.242;10.408;2024-01-16T13:59:56;1.20;99.90
7000;DHT22;3540;53.242;10.408;2024-01-16T14:02:22;1.20;99.90
7000;DHT22;3540;53.242;10.408;2024-01-16T14:04:48;1.20;99.90
7000;DHT22;3540;53.242;10.408;2024-01-16T14:07:13;1.20;99.90
7000;DHT22;3540;53.242;10.408;2024-01-16T14:09:40;1.20;99.90
7000;DHT22;3540;53.242;10.408;2024-01-16T14:12:09;1.20;99.90
7000;DHT22;3540;53.242;10.408;2024-01-16T14:14:34;1.20;99.90
7000;DHT22;3540;53.242;10.408;2024-01-16T14:17:01;1.20;99.90
7000;DHT22;3540;53.242;10.408;2024-01-16T14:19:28;1.10;99.90
7000;DHT22;3540;53.242;10.408;2024-01-16T14:21:55;1.20;99.90
7000;DHT22;3540;53.242;10.408;2024-01-16T14:24:21;1.20;99.90
7000;DHT22;3540;53.242;10.408;2024-01-16T14:26:47;1.10;99.90
7000;DHT22;3540;53.242;10.408;2024-01-16T14:29:13;1.00;99.90
7000;DHT22;3540;53.242;10.408;2024-01-16T14:31:39;1.10;99.90
7000;DHT22;3540;53.242;10.408;2024-01-16T14:34:10;1.10;99.90
7000;DHT22;3540;53.242;10.408;2024-01-16T14:36:39;1.00;99.90
7000;DHT22;3540;53.242;10.408;2024-01-16T14:39:05;1.10;99.90
7000;DHT22;3540;53.242;10.408;2024-01-16T14:41:31;1.10;99.90
7000;DHT22;3540;53.242;10.408;2024-01-16T14:43:57;1.00;99.90
7000;DHT22;3540;53.242;10.408;2024-01-16T14:46:23;1.00;99.90
7000;DHT22;3540;53.242;10.408;2024-01-16T14:48:49;1.00;99.90
7000;DHT22;3540;53.242;10.408;2024-01-16T14:51:14;1.10;99.90
7000;DHT22;3540;53.242;10.408;2024-01-16T14:53:40;1.00;99.90
7000;DHT22;3540;53.242;10.408;2024-01-16T14:56:06;1.00;99.90
7000;DHT22;3540;53.242;10.408;2024-01-16T14:58:31;1.00;99.90
7000;DHT22;3540;53.242;10.408;2024-01-16T15:00:57;1.00;99.90
7000;DHT22;3540;53.242;10.408;2024-01-16T15:03:23;1.00;99.90
7000;DHT22;3540;53.242;10.408;2024-01-16T15:05:50;1.00;99.90
7000;DHT22;3540;53.242;10.408;2024-01-16T15:08:16;1.00;99.90
7000;DHT22;3540;53.242;10.408;2024-01-16T15:10:42;1.00;99.90
7000;DHT22;3540;53.242;10.408;2024-01-16T15:13:07;1.00;99.90
7000;DHT22;3540;53.242;10.408;2024-01-16T15:15:34;1.00;99.90
7000;DHT22;3540;53.242;10.408;2024-01-16T15:18:00;0.90;99.90
7000;DHT22;3540;53.242;10.408;2024-01-16T15:20:26;1.00;99.90
7000;DHT22;3540;53.242;10.408;2024-01-16T15:22:51;0.90;99.90
7000;DHT22;3540;53.242;10.408;2024-01-16T15:25:19;0.90;99.90
7000;DHT22;3540;53.242;10.408;2024-01-16T15:27:47;1.00;99.90
7000;DHT22;3540;53.242;10.408;2024-01-16T15:30:19;1.00;99.90
7000;DHT22;3540;53.242;10.408;2024-01-16T15:32:45;1.00;99.90
7000;DHT22;3540;53.242;10.408;2024-01-16T15:35:11;1.00;99.90
7000;DHT22;3540;53.242;10.408;2024-01-16T15:37:36;1.00;99.90
7000;DHT22;3540;53.242;10.408;2024-01-16T15:40:02;1.00;99.90
7000;DHT22;3540;53.242;10.408;2024-01-16T15:42:32;1.00;99.90
7000;DHT22;3540;53.242;10.408;2024-01-16T15:44:58;1.00;99.90
7000;DHT22;3540;53.242;10.408;2024-01-16T15:47:24;1.00;99.90
7000;DHT22;3540;53.242;10.408;2024-01-16T15:49:49;1.00;99.90
7000;DHT22;3540;53.242;10.408;2024-01-16T15:52:15;1.00;99.90
7000;DHT22;3540;53.242;10.408;2024-01-16T15:54:41;1.00;99.90
7000;DHT22;3540;53.242;10.408;2024-01-16T15:57:07;0.90;99.90
7000;DHT22;3540;53.242;10.408;2024-01-16T15:59:33;0.90;99.90
7000;DHT22;3540;53.242;10.408;2024-01-16T16:01:59;0.90;99.90